sensor_id;sensor_type;location;lat;lon;timestamp;P1;durP1;ratioP1;P2;durP2;ratioP2
72493;SDS011;60520;49.182;-0.348;2023-07-02T00:01:49;23.52;;;14.00;;
72493;SDS011;60520;49.182;-0.348;2023-07-02T00:04:17;22.42;;;14.30;;
72493;SDS011;60520;49.182;-0.348;2023-07-02T00:06:45;22.20;;;13.45;;
72493;SDS011;60520;49.182;-0.348;2023-07-02T00:09:13;22.92;;;14.30;;
72493;SDS011;60520;49.182;-0.348;2023-07-02T00:11:41;21.08;;;13.50;;
72493;SDS011;60520;49.182;-0.348;2023-07-02T00:14:10;21.42;;;13.40;;
72493;SDS011;60520;49.182;-0.348;2023-07-02T00:16:37;20.70;;;12.73;;
72493;SDS011;60520;49.182;-0.348;2023-07-02T00:19:04;21.83;;;13.50;;
72493;SDS011;60520;49.182;-0.348;2023-07-02T00:21:31;23.17;;;13.90;;
72493;SDS011;60520;49.182;-0.348;2023-07-02T00:23:59;22.92;;;13.32;;
72493;SDS011;60520;49.182;-0.348;2023-07-02T00:26:26;23.50;;;13.90;;
72493;SDS011;60520;49.182;-0.348;2023-07-02T00:28:53;22.63;;;13.35;;
72493;SDS011;60520;49.182;-0.348;2023-07-02T00:31:22;21.13;;;13.57;;
72493;SDS011;60520;49.182;-0.348;2023-07-02T00:33:49;21.80;;;13.43;;
72493;SDS011;60520;49.182;-0.348;2023-07-02T00:36:17;21.30;;;13.15;;
72493;SDS011;60520;49.182;-0.348;2023-07-02T00:38:44;21.10;;;13.20;;
72493;SDS011;60520;49.182;-0.348;2023-07-02T00:41:12;22.05;;;13.57;;
72493;SDS011;60520;49.182;-0.348;2023-07-02T00:43:39;22.90;;;13.38;;
72493;SDS011;60520;49.182;-0.348;2023-07-02T00:46:08;23.95;;;13.65;;
72493;SDS011;60520;49.182;-0.348;2023-07-02T00:48:37;22.00;;;12.90;;
72493;SDS011;60520;49.182;-0.348;2023-07-02T00:51:05;21.38;;;11.88;;
72493;SDS011;60520;49.182;-0.348;2023-07-02T00:53:32;22.50;;;13.05;;
72493;SDS011;60520;49.182;-0.348;2023-07-02T00:55:59;19.35;;;12.95;;
72493;SDS011;60520;49.182;-0.348;2023-07-02T00:58:26;21.30;;;12.80;;
72493;SDS011;60520;49.182;-0.348;2023-07-02T01:00:54;20.13;;;12.90;;
72493;SDS011;60520;49.182;-0.348;2023-07-02T01:03:22;21.33;;;12.68;;
72493;SDS011;60520;49.182;-0.348;2023-07-02T01:05:50;21.92;;;13.45;;
72493;SDS011;60520;49.182;-0.348;2023-07-02T01:08:17;20.83;;;13.00;;
72493;SDS011;60520;49.182;-0.348;2023-07-02T01:10:45;22.67;;;13.10;;
72493;SDS011;60520;49.182;-0.348;2023-07-02T01:13:13;19.58;;;12.48;;
72493;SDS011;60520;49.182;-0.348;2023-07-02T01:15:41;18.55;;;11.77;;
72493;SDS011;60520;49.182;-0.348;2023-07-02T01:18:09;22.67;;;13.02;;
72493;SDS011;60520;49.182;-0.348;2023-07-02T01:20:38;22.55;;;13.25;;
72493;SDS011;60520;49.182;-0.348;2023-07-02T01:23:06;21.90;;;13.32;;
72493;SDS011;60520;49.182;-0.348;2023-07-02T01:25:34;19.48;;;12.48;;
72493;SDS011;60520;49.182;-0.348;2023-07-02T01:28:02;21.73;;;12.68;;
72493;SDS011;60520;49.182;-0.348;2023-07-02T01:30:29;21.30;;;12.98;;
72493;SDS011;60520;49.182;-0.348;2023-07-02T01:32:56;19.58;;;12.93;;
72493;SDS011;60520;49.182;-0.348;2023-07-02T01:35:23;20.10;;;11.98;;
72493;SDS011;60520;49.182;-0.348;2023-07-02T01:37:51;19.95;;;12.32;;
72493;SDS011;60520;49.182;-0.348;2023-07-02T01:40:19;21.92;;;12.25;;
72493;SDS011;60520;49.182;-0.348;2023-07-02T01:42:46;18.85;;;11.82;;
72493;SDS011;60520;49.182;-0.348;2023-07-02T01:45:13;21.63;;;12.43;;
72493;SDS011;60520;49.182;-0.348;2023-07-02T01:47:41;20.02;;;12.57;;
72493;SDS011;60520;49.182;-0.348;2023-07-02T01:50:08;19.67;;;11.75;;
72493;SDS011;60520;49.182;-0.348;2023-07-02T01:52:35;20.15;;;12.20;;
72493;SDS011;60520;49.182;-0.348;2023-07-02T01:55:04;20.40;;;11.90;;
72493;SDS011;60520;49.182;-0.348;2023-07-02T01:57:31;19.00;;;11.80;;
72493;SDS011;60520;49.182;-0.348;2023-07-02T01:59:58;20.42;;;12.38;;
72493;SDS011;60520;49.182;-0.348;2023-07-02T02:02:25;20.55;;;12.48;;
72493;SDS011;60520;49.182;-0.348;2023-07-02T02:04:52;19.80;;;12.43;;
72493;SDS011;60520;49.182;-0.348;2023-07-02T02:07:21;19.02;;;12.38;;
72493;SDS011;60520;49.182;-0.348;2023-07-02T02:09:48;18.85;;;11.93;;
72493;SDS011;60520;49.182;-0.348;2023-07-02T02:12:17;18.52;;;11.68;;
72493;SDS011;60520;49.182;-0.348;2023-07-02T02:14:44;19.02;;;11.40;;
72493;SDS011;60520;49.182;-0.348;2023-07-02T02:17:11;16.83;;;10.95;;
72493;SDS011;60520;49.182;-0.348;2023-07-02T02:19:39;23.05;;;12.68;;
72493;SDS011;60520;49.182;-0.348;2023-07-02T02:22:06;19.35;;;12.25;;
72493;SDS011;60520;49.182;-0.348;2023-07-02T02:24:33;18.67;;;11.15;;
72493;SDS011;60520;49.182;-0.348;2023-07-02T02:27:00;18.23;;;11.70;;
72493;SDS011;60520;49.182;-0.348;2023-07-02T02:29:29;19.45;;;11.70;;
72493;SDS011;60520;49.182;-0.348;2023-07-02T02:31:56;18.77;;;11.98;;
72493;SDS011;60520;49.182;-0.348;2023-07-02T02:34:23;19.27;;;11.13;;
72493;SDS011;60520;49.182;-0.348;2023-07-02T02:36:50;20.98;;;11.98;;
72493;SDS011;60520;49.182;-0.348;2023-07-02T02:39:19;19.02;;;11.27;;
72493;SDS011;60520;49.182;-0.348;2023-07-02T02:41:46;19.73;;;12.20;;
72493;SDS011;60520;49.182;-0.348;2023-07-02T02:44:13;18.58;;;11.60;;
72493;SDS011;60520;49.182;-0.348;2023-07-02T02:46:42;17.77;;;11.10;;
72493;SDS011;60520;49.182;-0.348;2023-07-02T02:49:09;18.27;;;11.20;;
72493;SDS011;60520;49.182;-0.348;2023-07-02T02:51:36;17.80;;;11.05;;
72493;SDS011;60520;49.182;-0.348;2023-07-02T02:54:05;21.65;;;11.75;;
72493;SDS011;60520;49.182;-0.348;2023-07-02T02:56:32;19.38;;;11.15;;
72493;SDS011;60520;49.182;-0.348;2023-07-02T02:58:59;20.73;;;11.65;;
72493;SDS011;60520;49.182;-0.348;2023-07-02T03:01:26;19.30;;;11.88;;
72493;SDS011;60520;49.182;-0.348;2023-07-02T03:03:57;21.10;;;12.07;;
72493;SDS011;60520;49.182;-0.348;2023-07-02T03:06:24;18.27;;;11.20;;
72493;SDS011;60520;49.182;-0.348;2023-07-02T03:08:51;17.42;;;10.52;;
72493;SDS011;60520;49.182;-0.348;2023-07-02T03:11:19;17.92;;;11.55;;
72493;SDS011;60520;49.182;-0.348;2023-07-02T03:13:46;19.70;;;11.55;;
72493;SDS011;60520;49.182;-0.348;2023-07-02T03:16:13;18.77;;;11.80;;
72493;SDS011;60520;49.182;-0.348;2023-07-02T03:18:40;18.80;;;11.45;;
72493;SDS011;60520;49.182;-0.348;2023-07-02T03:21:09;17.23;;;11.38;;
72493;SDS011;60520;49.182;-0.348;2023-07-02T03:23:36;18.08;;;11.05;;
72493;SDS011;60520;49.182;-0.348;2023-07-02T03:26:03;17.63;;;10.57;;
72493;SDS011;60520;49.182;-0.348;2023-07-02T03:28:31;19.65;;;11.32;;
72493;SDS011;60520;49.182;-0.348;2023-07-02T03:30:59;19.23;;;11.35;;
72493;SDS011;60520;49.182;-0.348;2023-07-02T03:33:27;19.10;;;11.18;;
72493;SDS011;60520;49.182;-0.348;2023-07-02T03:35:54;19.52;;;11.38;;
72493;SDS011;60520;49.182;-0.348;2023-07-02T03:38:22;20.13;;;11.45;;
72493;SDS011;60520;49.182;-0.348;2023-07-02T03:40:49;17.17;;;10.52;;
72493;SDS011;60520;49.182;-0.348;2023-07-02T03:43:16;18.85;;;11.75;;
72493;SDS011;60520;49.182;-0.348;2023-07-02T03:45:43;17.90;;;11.05;;
72493;SDS011;60520;49.182;-0.348;2023-07-02T03:48:10;20.00;;;11.75;;
72493;SDS011;60520;49.182;-0.348;2023-07-02T03:50:38;18.35;;;10.55;;
72493;SDS011;60520;49.182;-0.348;2023-07-02T03:53:05;16.08;;;10.45;;
72493;SDS011;60520;49.182;-0.348;2023-07-02T03:55:33;16.42;;;10.48;;
72493;SDS011;60520;49.182;-0.348;2023-07-02T03:58:00;19.27;;;11.10;;
72493;SDS011;60520;49.182;-0.348;2023-07-02T04:00:27;18.42;;;10.98;;
72493;SDS011;60520;49.182;-0.348;2023-07-02T04:02:54;18.27;;;11.27;;
72493;SDS011;60520;49.182;-0.348;2023-07-02T04:05:22;18.08;;;10.68;;
72493;SDS011;60520;49.182;-0.348;2023-07-02T04:07:49;17.83;;;10.55;;
72493;SDS011;60520;49.182;-0.348;2023-07-02T04:10:16;17.30;;;10.73;;
72493;SDS011;60520;49.182;-0.348;2023-07-02T04:12:44;19.55;;;10.68;;
72493;SDS011;60520;49.182;-0.348;2023-07-02T04:15:12;19.52;;;11.00;;
72493;SDS011;60520;49.182;-0.348;2023-07-02T04:17:39;17.10;;;10.40;;
72493;SDS011;60520;49.182;-0.348;2023-07-02T04:20:07;18.17;;;10.68;;
72493;SDS011;60520;49.182;-0.348;2023-07-02T04:22:35;17.20;;;10.48;;
72493;SDS011;60520;49.182;-0.348;2023-07-02T04:25:02;16.70;;;9.95;;
72493;SDS011;60520;49.182;-0.348;2023-07-02T04:27:29;18.40;;;10.85;;
72493;SDS011;60520;49.182;-0.348;2023-07-02T04:29:57;17.95;;;11.13;;
72493;SDS011;60520;49.182;-0.348;2023-07-02T04:32:25;17.25;;;10.70;;
72493;SDS011;60520;49.182;-0.348;2023-07-02T04:34:52;16.42;;;10.48;;
72493;SDS011;60520;49.182;-0.348;2023-07-02T04:37:19;17.45;;;10.40;;
72493;SDS011;60520;49.182;-0.348;2023-07-02T04:39:47;18.02;;;11.15;;
72493;SDS011;60520;49.182;-0.348;2023-07-02T04:42:14;16.92;;;10.63;;
72493;SDS011;60520;49.182;-0.348;2023-07-02T04:44:41;17.17;;;10.30;;
72493;SDS011;60520;49.182;-0.348;2023-07-02T04:47:10;19.10;;;10.18;;
72493;SDS011;60520;49.182;-0.348;2023-07-02T04:49:37;19.23;;;10.18;;
72493;SDS011;60520;49.182;-0.348;2023-07-02T04:52:05;18.00;;;10.48;;
72493;SDS011;60520;49.182;-0.348;2023-07-02T04:54:32;19.17;;;10.93;;
72493;SDS011;60520;49.182;-0.348;2023-07-02T04:56:59;18.33;;;10.35;;
72493;SDS011;60520;49.182;-0.348;2023-07-02T04:59:26;20.40;;;10.77;;
72493;SDS011;60520;49.182;-0.348;2023-07-02T05:01:53;15.38;;;9.68;;
72493;SDS011;60520;49.182;-0.348;2023-07-02T05:04:22;17.13;;;11.02;;
72493;SDS011;60520;49.182;-0.348;2023-07-02T05:06:49;19.73;;;10.10;;
72493;SDS011;60520;49.182;-0.348;2023-07-02T05:09:16;17.75;;;10.50;;
72493;SDS011;60520;49.182;-0.348;2023-07-02T05:11:43;17.98;;;10.00;;
72493;SDS011;60520;49.182;-0.348;2023-07-02T05:14:10;18.65;;;10.63;;
72493;SDS011;60520;49.182;-0.348;2023-07-02T05:16:37;15.95;;;10.35;;
72493;SDS011;60520;49.182;-0.348;2023-07-02T05:19:04;16.70;;;10.30;;
72493;SDS011;60520;49.182;-0.348;2023-07-02T05:21:33;17.67;;;10.52;;
72493;SDS011;60520;49.182;-0.348;2023-07-02T05:24:00;17.70;;;10.63;;
72493;SDS011;60520;49.182;-0.348;2023-07-02T05:26:27;15.25;;;10.02;;
72493;SDS011;60520;49.182;-0.348;2023-07-02T05:28:54;19.00;;;10.25;;
72493;SDS011;60520;49.182;-0.348;2023-07-02T05:31:21;18.27;;;10.10;;
72493;SDS011;60520;49.182;-0.348;2023-07-02T05:33:48;16.02;;;9.43;;
72493;SDS011;60520;49.182;-0.348;2023-07-02T05:36:15;16.33;;;9.80;;
72493;SDS011;60520;49.182;-0.348;2023-07-02T05:38:44;17.63;;;10.65;;
72493;SDS011;60520;49.182;-0.348;2023-07-02T05:41:11;16.45;;;10.15;;
72493;SDS011;60520;49.182;-0.348;2023-07-02T05:43:44;16.63;;;9.55;;
72493;SDS011;60520;49.182;-0.348;2023-07-02T05:46:11;17.15;;;10.40;;
72493;SDS011;60520;49.182;-0.348;2023-07-02T05:48:39;17.65;;;10.52;;
72493;SDS011;60520;49.182;-0.348;2023-07-02T05:51:06;15.80;;;9.65;;
72493;SDS011;60520;49.182;-0.348;2023-07-02T05:53:33;17.85;;;9.60;;
72493;SDS011;60520;49.182;-0.348;2023-07-02T05:56:01;17.80;;;10.27;;
72493;SDS011;60520;49.182;-0.348;2023-07-02T05:58:29;16.23;;;9.82;;
72493;SDS011;60520;49.182;-0.348;2023-07-02T06:00:56;18.98;;;9.98;;
72493;SDS011;60520;49.182;-0.348;2023-07-02T06:03:23;15.13;;;9.65;;
72493;SDS011;60520;49.182;-0.348;2023-07-02T06:05:50;16.20;;;9.80;;
72493;SDS011;60520;49.182;-0.348;2023-07-02T06:08:17;15.80;;;9.73;;
72493;SDS011;60520;49.182;-0.348;2023-07-02T06:10:45;16.00;;;9.52;;
72493;SDS011;60520;49.182;-0.348;2023-07-02T06:13:14;17.30;;;10.25;;
72493;SDS011;60520;49.182;-0.348;2023-07-02T06:15:41;16.67;;;9.65;;
72493;SDS011;60520;49.182;-0.348;2023-07-02T06:18:08;17.50;;;10.07;;
72493;SDS011;60520;49.182;-0.348;2023-07-02T06:20:35;14.32;;;9.48;;
72493;SDS011;60520;49.182;-0.348;2023-07-02T06:23:02;18.35;;;10.52;;
72493;SDS011;60520;49.182;-0.348;2023-07-02T06:25:29;16.45;;;10.10;;
72493;SDS011;60520;49.182;-0.348;2023-07-02T06:27:56;14.05;;;9.30;;
72493;SDS011;60520;49.182;-0.348;2023-07-02T06:30:25;16.50;;;9.52;;
72493;SDS011;60520;49.182;-0.348;2023-07-02T06:32:53;15.30;;;9.43;;
72493;SDS011;60520;49.182;-0.348;2023-07-02T06:35:20;16.27;;;10.13;;
72493;SDS011;60520;49.182;-0.348;2023-07-02T06:37:47;19.15;;;9.63;;
72493;SDS011;60520;49.182;-0.348;2023-07-02T06:40:14;17.98;;;9.30;;
72493;SDS011;60520;49.182;-0.348;2023-07-02T06:42:41;14.10;;;9.35;;
72493;SDS011;60520;49.182;-0.348;2023-07-02T06:45:08;16.83;;;10.02;;
72493;SDS011;60520;49.182;-0.348;2023-07-02T06:47:37;15.70;;;9.45;;
72493;SDS011;60520;49.182;-0.348;2023-07-02T06:50:04;14.95;;;9.32;;
72493;SDS011;60520;49.182;-0.348;2023-07-02T06:52:32;15.57;;;9.45;;
72493;SDS011;60520;49.182;-0.348;2023-07-02T06:54:59;15.68;;;9.65;;
72493;SDS011;60520;49.182;-0.348;2023-07-02T06:57:26;14.57;;;9.15;;
72493;SDS011;60520;49.182;-0.348;2023-07-02T06:59:56;15.45;;;9.35;;
72493;SDS011;60520;49.182;-0.348;2023-07-02T07:02:25;15.60;;;9.40;;
72493;SDS011;60520;49.182;-0.348;2023-07-02T07:04:54;17.23;;;10.13;;
72493;SDS011;60520;49.182;-0.348;2023-07-02T07:07:21;15.10;;;9.15;;
72493;SDS011;60520;49.182;-0.348;2023-07-02T07:09:48;16.30;;;8.98;;
72493;SDS011;60520;49.182;-0.348;2023-07-02T07:12:15;15.63;;;9.38;;
72493;SDS011;60520;49.182;-0.348;2023-07-02T07:14:42;15.48;;;9.00;;
72493;SDS011;60520;49.182;-0.348;2023-07-02T07:17:09;13.48;;;8.68;;
72493;SDS011;60520;49.182;-0.348;2023-07-02T07:19:36;14.00;;;9.05;;
72493;SDS011;60520;49.182;-0.348;2023-07-02T07:22:05;14.40;;;9.38;;
72493;SDS011;60520;49.182;-0.348;2023-07-02T07:24:32;15.75;;;9.75;;
72493;SDS011;60520;49.182;-0.348;2023-07-02T07:26:59;14.35;;;9.18;;
72493;SDS011;60520;49.182;-0.348;2023-07-02T07:29:26;16.05;;;9.13;;
72493;SDS011;60520;49.182;-0.348;2023-07-02T07:31:53;14.73;;;9.27;;
72493;SDS011;60520;49.182;-0.348;2023-07-02T07:34:21;14.35;;;8.95;;
72493;SDS011;60520;49.182;-0.348;2023-07-02T07:36:48;14.02;;;8.65;;
72493;SDS011;60520;49.182;-0.348;2023-07-02T07:39:16;15.10;;;9.27;;
72493;SDS011;60520;49.182;-0.348;2023-07-02T07:41:46;12.35;;;8.60;;
72493;SDS011;60520;49.182;-0.348;2023-07-02T07:44:13;13.55;;;8.45;;
72493;SDS011;60520;49.182;-0.348;2023-07-02T07:46:40;13.95;;;8.35;;
72493;SDS011;60520;49.182;-0.348;2023-07-02T07:49:08;14.98;;;9.20;;
72493;SDS011;60520;49.182;-0.348;2023-07-02T07:51:35;12.10;;;8.60;;
72493;SDS011;60520;49.182;-0.348;2023-07-02T07:54:02;14.85;;;8.23;;
72493;SDS011;60520;49.182;-0.348;2023-07-02T07:56:30;15.18;;;8.82;;
72493;SDS011;60520;49.182;-0.348;2023-07-02T07:58:57;14.50;;;8.93;;
72493;SDS011;60520;49.182;-0.348;2023-07-02T08:01:25;16.83;;;9.35;;
72493;SDS011;60520;49.182;-0.348;2023-07-02T08:03:53;13.02;;;8.80;;
72493;SDS011;60520;49.182;-0.348;2023-07-02T08:06:20;13.80;;;8.43;;
72493;SDS011;60520;49.182;-0.348;2023-07-02T08:08:47;15.93;;;8.95;;
72493;SDS011;60520;49.182;-0.348;2023-07-02T08:11:14;15.30;;;9.40;;
72493;SDS011;60520;49.182;-0.348;2023-07-02T08:13:43;12.80;;;8.20;;
72493;SDS011;60520;49.182;-0.348;2023-07-02T08:16:10;14.02;;;9.02;;
72493;SDS011;60520;49.182;-0.348;2023-07-02T08:18:38;14.45;;;9.27;;
72493;SDS011;60520;49.182;-0.348;2023-07-02T08:21:05;13.77;;;9.05;;
72493;SDS011;60520;49.182;-0.348;2023-07-02T08:23:33;12.70;;;7.85;;
72493;SDS011;60520;49.182;-0.348;2023-07-02T08:26:00;14.85;;;9.02;;
72493;SDS011;60520;49.182;-0.348;2023-07-02T08:28:28;12.75;;;8.50;;
72493;SDS011;60520;49.182;-0.348;2023-07-02T08:30:56;15.00;;;9.20;;
72493;SDS011;60520;49.182;-0.348;2023-07-02T08:33:24;13.50;;;9.00;;
72493;SDS011;60520;49.182;-0.348;2023-07-02T08:35:51;14.02;;;8.75;;
72493;SDS011;60520;49.182;-0.348;2023-07-02T08:38:18;13.73;;;8.65;;
72493;SDS011;60520;49.182;-0.348;2023-07-02T08:40:45;13.32;;;8.45;;
72493;SDS011;60520;49.182;-0.348;2023-07-02T08:43:12;14.70;;;8.68;;
72493;SDS011;60520;49.182;-0.348;2023-07-02T08:45:40;14.93;;;8.18;;
72493;SDS011;60520;49.182;-0.348;2023-07-02T08:48:09;12.50;;;8.65;;
72493;SDS011;60520;49.182;-0.348;2023-07-02T08:50:36;11.65;;;7.68;;
72493;SDS011;60520;49.182;-0.348;2023-07-02T08:53:04;12.77;;;8.20;;
72493;SDS011;60520;49.182;-0.348;2023-07-02T08:55:31;12.00;;;8.13;;
72493;SDS011;60520;49.182;-0.348;2023-07-02T08:57:58;12.10;;;8.43;;
72493;SDS011;60520;49.182;-0.348;2023-07-02T09:00:25;13.68;;;8.82;;
72493;SDS011;60520;49.182;-0.348;2023-07-02T09:02:56;13.98;;;8.50;;
72493;SDS011;60520;49.182;-0.348;2023-07-02T09:05:24;15.65;;;8.70;;
72493;SDS011;60520;49.182;-0.348;2023-07-02T09:07:55;13.38;;;8.45;;
72493;SDS011;60520;49.182;-0.348;2023-07-02T09:10:26;13.82;;;8.65;;
72493;SDS011;60520;49.182;-0.348;2023-07-02T09:13:02;14.63;;;9.07;;
72493;SDS011;60520;49.182;-0.348;2023-07-02T09:15:34;12.60;;;8.13;;
72493;SDS011;60520;49.182;-0.348;2023-07-02T09:18:01;12.75;;;8.35;;
72493;SDS011;60520;49.182;-0.348;2023-07-02T09:20:33;14.52;;;7.75;;
72493;SDS011;60520;49.182;-0.348;2023-07-02T09:23:00;12.93;;;8.32;;
72493;SDS011;60520;49.182;-0.348;2023-07-02T09:25:33;14.32;;;8.65;;
72493;SDS011;60520;49.182;-0.348;2023-07-02T09:28:00;11.88;;;7.82;;
72493;SDS011;60520;49.182;-0.348;2023-07-02T09:30:29;13.07;;;8.20;;
72493;SDS011;60520;49.182;-0.348;2023-07-02T09:33:05;13.35;;;8.02;;
72493;SDS011;60520;49.182;-0.348;2023-07-02T09:35:34;13.23;;;8.02;;
72493;SDS011;60520;49.182;-0.348;2023-07-02T09:38:01;12.95;;;7.72;;
72493;SDS011;60520;49.182;-0.348;2023-07-02T09:40:28;11.80;;;8.02;;
72493;SDS011;60520;49.182;-0.348;2023-07-02T09:42:56;12.52;;;7.90;;
72493;SDS011;60520;49.182;-0.348;2023-07-02T09:45:23;12.38;;;8.07;;
72493;SDS011;60520;49.182;-0.348;2023-07-02T09:47:51;14.07;;;8.35;;
72493;SDS011;60520;49.182;-0.348;2023-07-02T09:50:18;11.30;;;7.55;;
72493;SDS011;60520;49.182;-0.348;2023-07-02T09:52:47;12.68;;;7.95;;
72493;SDS011;60520;49.182;-0.348;2023-07-02T09:55:15;12.10;;;7.47;;
72493;SDS011;60520;49.182;-0.348;2023-07-02T09:57:42;13.80;;;7.88;;
72493;SDS011;60520;49.182;-0.348;2023-07-02T10:00:10;12.18;;;7.57;;
72493;SDS011;60520;49.182;-0.348;2023-07-02T10:02:37;11.23;;;7.53;;
72493;SDS011;60520;49.182;-0.348;2023-07-02T10:05:05;11.02;;;7.10;;
72493;SDS011;60520;49.182;-0.348;2023-07-02T10:07:32;11.60;;;7.55;;
72493;SDS011;60520;49.182;-0.348;2023-07-02T10:10:00;12.73;;;7.72;;
72493;SDS011;60520;49.182;-0.348;2023-07-02T10:12:29;10.77;;;7.45;;
72493;SDS011;60520;49.182;-0.348;2023-07-02T10:14:56;10.80;;;7.35;;
72493;SDS011;60520;49.182;-0.348;2023-07-02T10:17:24;12.10;;;7.57;;
72493;SDS011;60520;49.182;-0.348;2023-07-02T10:19:52;13.68;;;7.82;;
72493;SDS011;60520;49.182;-0.348;2023-07-02T10:22:19;12.48;;;7.55;;
72493;SDS011;60520;49.182;-0.348;2023-07-02T10:24:50;13.07;;;7.53;;
72493;SDS011;60520;49.182;-0.348;2023-07-02T10:27:20;11.63;;;7.30;;
72493;SDS011;60520;49.182;-0.348;2023-07-02T10:29:50;12.15;;;7.90;;
72493;SDS011;60520;49.182;-0.348;2023-07-02T10:32:25;10.40;;;6.82;;
72493;SDS011;60520;49.182;-0.348;2023-07-02T10:34:53;11.35;;;7.25;;
72493;SDS011;60520;49.182;-0.348;2023-07-02T10:37:21;13.20;;;7.43;;
72493;SDS011;60520;49.182;-0.348;2023-07-02T10:39:48;13.52;;;8.15;;
72493;SDS011;60520;49.182;-0.348;2023-07-02T10:42:17;11.35;;;7.32;;
72493;SDS011;60520;49.182;-0.348;2023-07-02T10:44:49;11.02;;;7.03;;
72493;SDS011;60520;49.182;-0.348;2023-07-02T10:47:16;12.73;;;7.60;;
72493;SDS011;60520;49.182;-0.348;2023-07-02T10:49:43;11.05;;;6.88;;
72493;SDS011;60520;49.182;-0.348;2023-07-02T10:52:10;9.35;;;7.05;;
72493;SDS011;60520;49.182;-0.348;2023-07-02T10:54:41;11.43;;;7.15;;
72493;SDS011;60520;49.182;-0.348;2023-07-02T10:57:08;12.18;;;7.25;;
72493;SDS011;60520;49.182;-0.348;2023-07-02T10:59:36;11.52;;;7.30;;
72493;SDS011;60520;49.182;-0.348;2023-07-02T11:02:05;12.93;;;7.70;;
72493;SDS011;60520;49.182;-0.348;2023-07-02T11:04:32;10.98;;;6.75;;
72493;SDS011;60520;49.182;-0.348;2023-07-02T11:06:59;10.32;;;6.88;;
72493;SDS011;60520;49.182;-0.348;2023-07-02T11:09:26;11.88;;;6.88;;
72493;SDS011;60520;49.182;-0.348;2023-07-02T11:11:54;11.35;;;7.45;;
72493;SDS011;60520;49.182;-0.348;2023-07-02T11:14:31;10.23;;;7.22;;
72493;SDS011;60520;49.182;-0.348;2023-07-02T11:16:58;11.75;;;7.28;;
72493;SDS011;60520;49.182;-0.348;2023-07-02T11:19:28;9.95;;;6.80;;
72493;SDS011;60520;49.182;-0.348;2023-07-02T11:21:56;11.75;;;7.53;;
72493;SDS011;60520;49.182;-0.348;2023-07-02T11:24:27;9.70;;;6.60;;
72493;SDS011;60520;49.182;-0.348;2023-07-02T11:26:55;10.63;;;6.85;;
72493;SDS011;60520;49.182;-0.348;2023-07-02T11:29:22;9.98;;;6.65;;
72493;SDS011;60520;49.182;-0.348;2023-07-02T11:31:49;10.32;;;6.70;;
72493;SDS011;60520;49.182;-0.348;2023-07-02T11:34:17;12.23;;;7.32;;
72493;SDS011;60520;49.182;-0.348;2023-07-02T11:36:46;12.13;;;6.80;;
72493;SDS011;60520;49.182;-0.348;2023-07-02T11:39:14;10.60;;;6.57;;
72493;SDS011;60520;49.182;-0.348;2023-07-02T11:41:43;10.57;;;6.57;;
72493;SDS011;60520;49.182;-0.348;2023-07-02T11:44:10;9.80;;;6.38;;
72493;SDS011;60520;49.182;-0.348;2023-07-02T11:46:38;10.40;;;6.43;;
72493;SDS011;60520;49.182;-0.348;2023-07-02T11:49:05;9.43;;;6.53;;
72493;SDS011;60520;49.182;-0.348;2023-07-02T11:51:34;10.35;;;6.18;;
72493;SDS011;60520;49.182;-0.348;2023-07-02T11:54:03;11.43;;;6.93;;
72493;SDS011;60520;49.182;-0.348;2023-07-02T11:56:30;10.88;;;6.20;;
72493;SDS011;60520;49.182;-0.348;2023-07-02T11:58:57;9.75;;;6.25;;
72493;SDS011;60520;49.182;-0.348;2023-07-02T12:01:24;11.63;;;6.55;;
72493;SDS011;60520;49.182;-0.348;2023-07-02T12:03:52;10.80;;;6.65;;
72493;SDS011;60520;49.182;-0.348;2023-07-02T12:06:19;9.43;;;5.93;;
72493;SDS011;60520;49.182;-0.348;2023-07-02T12:08:47;9.45;;;6.35;;
72493;SDS011;60520;49.182;-0.348;2023-07-02T12:11:15;10.38;;;6.70;;
72493;SDS011;60520;49.182;-0.348;2023-07-02T12:13:42;10.15;;;6.25;;
72493;SDS011;60520;49.182;-0.348;2023-07-02T12:16:10;10.13;;;6.68;;
72493;SDS011;60520;49.182;-0.348;2023-07-02T12:18:37;11.55;;;6.40;;
72493;SDS011;60520;49.182;-0.348;2023-07-02T12:21:04;9.38;;;6.07;;
72493;SDS011;60520;49.182;-0.348;2023-07-02T12:23:31;8.90;;;5.90;;
72493;SDS011;60520;49.182;-0.348;2023-07-02T12:25:58;9.57;;;6.18;;
72493;SDS011;60520;49.182;-0.348;2023-07-02T12:28:26;11.27;;;5.97;;
72493;SDS011;60520;49.182;-0.348;2023-07-02T12:30:53;11.00;;;6.60;;
72493;SDS011;60520;49.182;-0.348;2023-07-02T12:33:21;10.73;;;6.20;;
72493;SDS011;60520;49.182;-0.348;2023-07-02T12:35:48;10.57;;;6.57;;
72493;SDS011;60520;49.182;-0.348;2023-07-02T12:38:15;11.32;;;6.00;;
72493;SDS011;60520;49.182;-0.348;2023-07-02T12:40:42;10.73;;;6.38;;
72493;SDS011;60520;49.182;-0.348;2023-07-02T12:43:09;10.13;;;6.10;;
72493;SDS011;60520;49.182;-0.348;2023-07-02T12:45:37;9.80;;;5.80;;
72493;SDS011;60520;49.182;-0.348;2023-07-02T12:48:05;12.05;;;6.45;;
72493;SDS011;60520;49.182;-0.348;2023-07-02T12:50:32;11.48;;;5.82;;
72493;SDS011;60520;49.182;-0.348;2023-07-02T12:52:59;10.23;;;6.18;;
72493;SDS011;60520;49.182;-0.348;2023-07-02T12:55:26;9.35;;;6.10;;
72493;SDS011;60520;49.182;-0.348;2023-07-02T12:57:53;11.65;;;6.35;;
72493;SDS011;60520;49.182;-0.348;2023-07-02T13:00:20;10.43;;;6.18;;
72493;SDS011;60520;49.182;-0.348;2023-07-02T13:02:49;9.48;;;6.20;;
72493;SDS011;60520;49.182;-0.348;2023-07-02T13:05:16;9.23;;;6.05;;
72493;SDS011;60520;49.182;-0.348;2023-07-02T13:07:43;10.80;;;5.90;;
72493;SDS011;60520;49.182;-0.348;2023-07-02T13:10:10;10.02;;;6.25;;
72493;SDS011;60520;49.182;-0.348;2023-07-02T13:12:37;10.60;;;6.30;;
72493;SDS011;60520;49.182;-0.348;2023-07-02T13:15:05;9.50;;;5.72;;
72493;SDS011;60520;49.182;-0.348;2023-07-02T13:17:32;10.52;;;5.70;;
72493;SDS011;60520;49.182;-0.348;2023-07-02T13:20:00;10.55;;;6.28;;
72493;SDS011;60520;49.182;-0.348;2023-07-02T13:22:27;10.93;;;6.05;;
72493;SDS011;60520;49.182;-0.348;2023-07-02T13:24:54;10.65;;;6.00;;
72493;SDS011;60520;49.182;-0.348;2023-07-02T13:27:21;9.43;;;6.15;;
72493;SDS011;60520;49.182;-0.348;2023-07-02T13:29:49;10.65;;;6.05;;
72493;SDS011;60520;49.182;-0.348;2023-07-02T13:32:16;8.70;;;5.78;;
72493;SDS011;60520;49.182;-0.348;2023-07-02T13:34:43;10.15;;;6.32;;
72493;SDS011;60520;49.182;-0.348;2023-07-02T13:37:11;9.30;;;5.75;;
72493;SDS011;60520;49.182;-0.348;2023-07-02T13:39:42;9.10;;;5.53;;
72493;SDS011;60520;49.182;-0.348;2023-07-02T13:42:10;8.95;;;5.85;;
72493;SDS011;60520;49.182;-0.348;2023-07-02T13:44:37;9.00;;;5.85;;
72493;SDS011;60520;49.182;-0.348;2023-07-02T13:47:04;10.07;;;6.07;;
72493;SDS011;60520;49.182;-0.348;2023-07-02T13:49:31;9.73;;;5.45;;
72493;SDS011;60520;49.182;-0.348;2023-07-02T13:51:59;9.90;;;5.50;;
72493;SDS011;60520;49.182;-0.348;2023-07-02T13:54:28;9.73;;;5.85;;
72493;SDS011;60520;49.182;-0.348;2023-07-02T13:56:55;10.45;;;5.60;;
72493;SDS011;60520;49.182;-0.348;2023-07-02T13:59:23;9.18;;;5.68;;
72493;SDS011;60520;49.182;-0.348;2023-07-02T14:01:51;9.80;;;5.78;;
72493;SDS011;60520;49.182;-0.348;2023-07-02T14:04:19;8.55;;;5.50;;
72493;SDS011;60520;49.182;-0.348;2023-07-02T14:06:46;8.18;;;5.15;;
72493;SDS011;60520;49.182;-0.348;2023-07-02T14:09:13;10.07;;;6.10;;
72493;SDS011;60520;49.182;-0.348;2023-07-02T14:11:40;10.07;;;5.50;;
72493;SDS011;60520;49.182;-0.348;2023-07-02T14:14:08;9.82;;;5.28;;
72493;SDS011;60520;49.182;-0.348;2023-07-02T14:16:37;9.75;;;5.90;;
72493;SDS011;60520;49.182;-0.348;2023-07-02T14:19:04;10.05;;;5.80;;
72493;SDS011;60520;49.182;-0.348;2023-07-02T14:21:31;10.05;;;5.75;;